createdAt,value
2022-11-19T00:01:15.652Z,-8.94
2022-11-19T00:06:26.134Z,-9.13
2022-11-19T00:11:47.548Z,-9.08
2022-11-19T00:16:50.104Z,-9.11
2022-11-19T00:21:52.613Z,-9.10
2022-11-19T00:26:56.098Z,-9.21
2022-11-19T00:31:58.665Z,-9.19
2022-11-19T00:37:01.266Z,-9.24
2022-11-19T00:42:03.936Z,-9.28
2022-11-19T00:47:06.588Z,-9.38
2022-11-19T00:52:09.287Z,-9.03
2022-11-19T00:57:11.844Z,-8.98
2022-11-19T01:02:14.417Z,-9.14
2022-11-19T01:07:17.331Z,-9.18
2022-11-19T01:12:20.065Z,-9.21
2022-11-19T01:17:22.625Z,-9.46
2022-11-19T01:22:25.158Z,-9.58
2022-11-19T01:27:27.687Z,-9.67
2022-11-19T01:32:30.363Z,-9.81
2022-11-19T01:37:32.999Z,-9.79
2022-11-19T01:42:50.902Z,-10.10
2022-11-19T01:47:55.328Z,-9.96
2022-11-19T01:52:58.479Z,-9.90
2022-11-19T01:58:03.804Z,-9.97
2022-11-19T02:03:06.367Z,-10.03
2022-11-19T02:08:29.776Z,-10.26
2022-11-19T02:13:41.310Z,-10.16
2022-11-19T02:18:54.469Z,-10.21
2022-11-19T02:24:05.468Z,-10.21
2022-11-19T02:29:30.052Z,-10.14
2022-11-19T02:34:39.284Z,-9.77
2022-11-19T02:39:59.497Z,-9.63
2022-11-19T02:45:27.238Z,-9.43
2022-11-19T02:50:38.159Z,-9.35
2022-11-19T02:55:40.816Z,-9.12
2022-11-19T03:01:06.571Z,-9.17
2022-11-19T03:06:14.596Z,-8.74
2022-11-19T03:11:37.274Z,-8.50
2022-11-19T03:16:42.299Z,-8.25
2022-11-19T03:21:54.939Z,-8.49
2022-11-19T03:27:18.727Z,-8.27
2022-11-19T03:32:31.333Z,-8.11
2022-11-19T03:37:37.811Z,-8.20
2022-11-19T03:42:43.486Z,-8.37
2022-11-19T03:47:50.027Z,-8.19
2022-11-19T03:52:52.719Z,-8.63
2022-11-19T03:58:00.396Z,-8.12
2022-11-19T04:03:03.099Z,-7.88
2022-11-19T04:08:05.771Z,-7.89
2022-11-19T04:13:08.276Z,-7.59
2022-11-19T04:18:10.882Z,-7.52
2022-11-19T04:23:13.475Z,-7.85
2022-11-19T04:28:16.052Z,-8.11
2022-11-19T04:33:18.668Z,-7.69
2022-11-19T04:38:22.394Z,-7.64
2022-11-19T04:43:25.329Z,-7.40
2022-11-19T04:48:27.981Z,-7.44
2022-11-19T04:53:30.492Z,-7.81
2022-11-19T04:58:33.360Z,-8.11
2022-11-19T05:03:35.946Z,-8.12
2022-11-19T05:08:38.449Z,-8.40
2022-11-19T05:13:42.590Z,-8.35
2022-11-19T05:18:45.462Z,-8.29
2022-11-19T05:23:48.128Z,-7.87
2022-11-19T05:28:50.730Z,-7.59
2022-11-19T05:33:53.324Z,-7.61
2022-11-19T05:38:56.569Z,-7.71
2022-11-19T05:43:59.251Z,-7.54
2022-11-19T05:49:01.823Z,-7.26
2022-11-19T05:54:04.383Z,-7.51
2022-11-19T05:59:07.023Z,-7.20
2022-11-19T06:04:11.205Z,-7.00
2022-11-19T06:09:13.737Z,-6.57
2022-11-19T06:14:24.384Z,-6.36
2022-11-19T06:19:27.088Z,-6.13
2022-11-19T06:24:30.130Z,-6.00
2022-11-19T06:29:32.590Z,-5.83
2022-11-19T06:34:35.161Z,-5.74
2022-11-19T06:39:37.755Z,-5.63
2022-11-19T06:44:40.304Z,-5.43
2022-11-19T06:49:42.827Z,-5.68
2022-11-19T06:54:45.426Z,-5.63
2022-11-19T06:59:48.155Z,-5.58
2022-11-19T07:04:51.485Z,-5.33
2022-11-19T07:09:54.048Z,-5.13
2022-11-19T07:15:01.103Z,-4.95
2022-11-19T07:20:07.490Z,-4.68
2022-11-19T07:25:13.540Z,-4.62
2022-11-19T07:30:17.141Z,-4.73
2022-11-19T07:35:19.815Z,-4.90
2022-11-19T07:40:22.363Z,-4.67
2022-11-19T07:45:24.950Z,-4.70
2022-11-19T07:50:27.488Z,-4.43
2022-11-19T07:55:30.003Z,-4.07
2022-11-19T08:00:32.477Z,-3.74
2022-11-19T08:05:38.280Z,-3.96
2022-11-19T08:10:40.921Z,-4.10
2022-11-19T08:15:43.576Z,-3.82
2022-11-19T08:20:48.547Z,-4.25
2022-11-19T08:25:53.054Z,-4.11
2022-11-19T08:30:56.157Z,-4.12
2022-11-19T08:35:58.701Z,-3.86
2022-11-19T08:41:19.718Z,-3.64
2022-11-19T08:46:22.240Z,-3.71
2022-11-19T08:51:24.902Z,-3.74
2022-11-19T08:56:27.682Z,-3.55
2022-11-19T09:01:30.795Z,-3.47
2022-11-19T09:06:36.244Z,-3.86
2022-11-19T09:11:42.616Z,-3.48
2022-11-19T09:16:45.677Z,-3.40
2022-11-19T09:21:49.066Z,-3.47
2022-11-19T09:26:52.992Z,-3.31
2022-11-19T09:31:55.851Z,-3.04
2022-11-19T09:36:58.632Z,-3.16
2022-11-19T09:42:21.887Z,-3.33
2022-11-19T09:47:40.818Z,-3.47
2022-11-19T09:52:51.855Z,-3.65
2022-11-19T09:57:57.774Z,-3.75
2022-11-19T10:03:10.954Z,-3.67
2022-11-19T10:08:40.302Z,-3.55
2022-11-19T10:13:45.773Z,-3.77
2022-11-19T10:19:10.994Z,-4.23
2022-11-19T10:24:18.430Z,-4.18
2022-11-19T10:29:24.989Z,-4.18
2022-11-19T10:34:36.544Z,-4.17
2022-11-19T10:39:43.990Z,-3.84
2022-11-19T10:45:02.600Z,-4.01
2022-11-19T10:50:11.141Z,-4.22
2022-11-19T10:55:20.195Z,-4.13
2022-11-19T11:00:22.873Z,-4.22
2022-11-19T11:05:25.472Z,-4.38
2022-11-19T11:10:44.829Z,-4.38
2022-11-19T11:15:50.591Z,-4.22
2022-11-19T11:20:53.532Z,-4.00
2022-11-19T11:26:17.996Z,-3.85
2022-11-19T11:31:33.151Z,-3.77
2022-11-19T11:36:37.246Z,-3.67
2022-11-19T11:47:18.517Z,-4.01
2022-11-19T11:52:27.393Z,-3.94
2022-11-19T11:58:03.684Z,-3.88
2022-11-19T12:03:20.382Z,-4.00
2022-11-19T12:08:45.007Z,-4.01
2022-11-19T12:14:08.052Z,-4.10
2022-11-19T12:19:41.588Z,-4.03
2022-11-19T12:25:09.190Z,-4.07
2022-11-19T12:30:20.951Z,-3.97
2022-11-19T12:35:36.726Z,-4.08
2022-11-19T12:40:45.062Z,-3.83
2022-11-19T12:45:53.654Z,-3.87
2022-11-19T12:51:04.586Z,-3.88
2022-11-19T12:56:23.806Z,-3.75
2022-11-19T13:01:33.837Z,-3.87
2022-11-19T13:07:02.618Z,-3.78
2022-11-19T13:12:09.583Z,-3.87
2022-11-19T13:17:35.382Z,-3.92
2022-11-19T13:22:42.794Z,-4.00
2022-11-19T13:27:48.996Z,-4.15
2022-11-19T13:33:05.341Z,-4.39
2022-11-19T13:38:29.838Z,-4.26
2022-11-19T13:43:51.099Z,-4.10
2022-11-19T13:48:56.526Z,-4.28
2022-11-19T13:54:03.437Z,-4.32
2022-11-19T13:59:07.850Z,-4.31
2022-11-19T14:04:47.666Z,-4.39
2022-11-19T14:10:03.575Z,-4.43
2022-11-19T14:16:03.500Z,-4.36
2022-11-19T14:21:42.700Z,-4.34
2022-11-19T14:26:49.808Z,-4.31
2022-11-19T14:32:07.137Z,-4.37
2022-11-19T14:37:16.143Z,-4.39
2022-11-19T14:42:23.063Z,-4.45
2022-11-19T14:47:31.809Z,-4.32
2022-11-19T14:52:40.077Z,-4.52
2022-11-19T14:57:45.023Z,-4.48
2022-11-19T15:02:52.682Z,-4.55
2022-11-19T15:08:17.908Z,-4.36
2022-11-19T15:13:26.347Z,-4.28
2022-11-19T15:18:41.402Z,-4.39
2022-11-19T15:24:05.842Z,-4.37
2022-11-19T15:29:53.508Z,-4.22
2022-11-19T15:35:19.938Z,-4.27
2022-11-19T15:40:31.029Z,-4.49
2022-11-19T15:45:40.865Z,-4.41
2022-11-19T15:50:44.244Z,-4.32
2022-11-19T15:55:54.419Z,-4.24
2022-11-19T16:00:57.846Z,-4.33
2022-11-19T16:06:17.704Z,-4.30
2022-11-19T16:11:42.278Z,-4.54
2022-11-19T16:17:03.682Z,-4.39
2022-11-19T16:22:06.262Z,-4.27
2022-11-19T16:27:18.748Z,-4.38
2022-11-19T16:32:24.597Z,-4.57
2022-11-19T16:37:27.183Z,-4.51
2022-11-19T16:42:31.064Z,-4.46
2022-11-19T16:47:39.807Z,-4.60
2022-11-19T16:52:43.673Z,-4.57
2022-11-19T16:57:48.161Z,-4.51
2022-11-19T17:02:51.932Z,-4.46
2022-11-19T17:08:06.821Z,-4.38
2022-11-19T17:13:21.276Z,-4.27
2022-11-19T17:18:33.454Z,-4.35
2022-11-19T17:23:46.807Z,-4.42
2022-11-19T17:28:54.091Z,-4.50
2022-11-19T17:34:06.725Z,-4.41
2022-11-19T17:39:11.348Z,-4.60
2022-11-19T17:44:32.569Z,-4.36
2022-11-19T17:49:36.076Z,-4.38
2022-11-19T17:54:39.756Z,-4.33
2022-11-19T17:59:43.362Z,-4.55
2022-11-19T18:04:47.601Z,-4.34
2022-11-19T18:09:50.324Z,-4.48
2022-11-19T18:14:55.708Z,-4.42
2022-11-19T18:20:00.656Z,-4.42
2022-11-19T18:25:12.481Z,-4.31
2022-11-19T18:30:16.311Z,-4.37
2022-11-19T18:35:20.284Z,-4.33
2022-11-19T18:40:23.074Z,-4.29
2022-11-19T18:45:30.989Z,-4.16
2022-11-19T18:50:34.146Z,-4.03
2022-11-19T18:55:36.752Z,-3.88
2022-11-19T19:00:39.632Z,-3.87
2022-11-19T19:05:42.428Z,-3.93
2022-11-19T19:10:45.041Z,-3.90
2022-11-19T19:15:47.800Z,-3.74
2022-11-19T19:20:50.418Z,-3.76
2022-11-19T19:25:53.194Z,-3.69
2022-11-19T19:30:59.947Z,-3.79
2022-11-19T19:36:03.801Z,-3.73
2022-11-19T19:41:14.336Z,-4.11
2022-11-19T19:46:20.083Z,-3.76
2022-11-19T19:51:25.727Z,-3.87
2022-11-19T19:56:30.306Z,-3.81
2022-11-19T20:01:35.889Z,-3.77
2022-11-19T20:06:44.935Z,-3.70
2022-11-19T20:11:47.612Z,-3.55
2022-11-19T20:16:50.205Z,-3.42
2022-11-19T20:21:54.573Z,-3.42
2022-11-19T20:26:57.238Z,-3.48
2022-11-19T20:31:59.908Z,-3.49
2022-11-19T20:37:02.531Z,-3.64
2022-11-19T20:42:23.840Z,-3.39
2022-11-19T20:47:26.416Z,-3.41
2022-11-19T20:52:28.995Z,-3.39
2022-11-19T20:57:31.557Z,-3.27
2022-11-19T21:02:34.163Z,-3.22
2022-11-19T21:07:36.773Z,-3.09
2022-11-19T21:12:59.358Z,-3.42
2022-11-19T21:18:02.670Z,-3.49
2022-11-19T21:23:05.185Z,-3.60
2022-11-19T21:28:08.335Z,-3.45
2022-11-19T21:33:10.913Z,-3.43
2022-11-19T21:38:13.719Z,-3.31
2022-11-19T21:43:16.314Z,-3.16
2022-11-19T21:48:19.037Z,-3.28
2022-11-19T21:53:21.898Z,-3.07
2022-11-19T21:58:24.491Z,-3.24
2022-11-19T22:03:28.609Z,-3.34
2022-11-19T22:08:32.673Z,-3.31
2022-11-19T22:13:35.631Z,-3.40
2022-11-19T22:18:38.237Z,-3.15
2022-11-19T22:23:41.071Z,-2.99
2022-11-19T22:28:43.790Z,-2.92
2022-11-19T22:33:49.772Z,-3.04
2022-11-19T22:38:52.420Z,-2.94
2022-11-19T22:43:55.177Z,-2.97
2022-11-19T22:48:57.777Z,-3.00
2022-11-19T22:54:00.368Z,-3.12
2022-11-19T22:59:02.914Z,-3.25
2022-11-19T23:04:07.133Z,-3.21
2022-11-19T23:09:10.154Z,-3.39
2022-11-19T23:14:16.012Z,-3.25
2022-11-19T23:19:19.687Z,-3.16
2022-11-19T23:24:22.605Z,-3.13
2022-11-19T23:29:25.123Z,-3.42
2022-11-19T23:34:27.691Z,-3.36
2022-11-19T23:39:30.153Z,-3.18
2022-11-19T23:44:32.695Z,-3.10
2022-11-19T23:49:35.262Z,-3.11
2022-11-19T23:54:37.829Z,-3.03
2022-11-19T23:59:40.483Z,-3.10
